Austin, TX (78772)

2:51 PM CST on December 26, 2014 (GMT -0600)
Travis Heights - Chateaux Sexton | Change Station
CLOSE
Current Station
Personal Weather Station
Location: Austin, TX
Elevation: 568 ft
Nearby Weather Stations

Elev 568 ft 30.24 °N, 97.75 °W | Updated 5 seconds ago

Mostly Cloudy
Mostly Cloudy
71.9 °F
Feels Like 74 °F
N
7.0
Wind Variable Wind from NE
Gusts 14.0 mph

Today
High -- | Low -- °F
--% Chance of Precip.
Yesterday
High -- | Low -- °F
Precip. -- in
7:25 AM 5:37 PM
Waxing Crescent, 29% visible
Pressure 29.86 in
Visibility 10.0 miles
Clouds Scattered Clouds 2100 ft
Scattered Clouds 2600 ft
Mostly Cloudy 4500 ft
Heat Index 74 °F
Dew Point 62 °F
Humidity 72%
Rainfall 0.00 in
Snow Depth Not available.
UV 2 out of 12
Pollen 8.30 out of 12
Air Quality Not available.
Flu Activity Not available.
SPECI KAUS 262021Z 18017G23KT 10SM SCT021 SCT026 BKN045 22/16 A2986 RMK AO2 T02220161

More Conditions Fewer Conditions

Pressure 29.86 in
Visibility 10.0 miles
Clouds Scattered Clouds 2100 ft
Scattered Clouds 2600 ft
Mostly Cloudy 4500 ft
Heat Index 74 °F
Dew Point 62 °F
Humidity 72%
Rainfall 0.00 in
Snow Depth Not available.
UV 2 out of 12
Pollen 8.30 out of 12
Air Quality Not available.
Flu Activity Not available.
SPECI KAUS 262021Z 18017G23KT 10SM SCT021 SCT026 BKN045 22/16 A2986 RMK AO2 T02220161

More Conditions Fewer Conditions

Nowcast | as of 1:54 PM CST on December 26, 2014

Through 4 PM...patchy light rain will persist across eastern parts of south central Texas. Rainfall amounts up to a few hundredths of an inch can be expected.

×

10-Day Weather Forecast

Almanac

Astronomy

Dec. 26, 2014 Rise Set
Actual Time
Civil Twilight
Nautical Twilight
Astronomical Twilight
Moon
Length of Visible Light
Length of Day
Tomorrow will be .
, % of the Moon is Illuminated

Today's Extremes

State Highs State Lows

Community

WunderPhotos

Upload Photos

1,780,700 photos uploaded!

WunderBlogs® & News

Nearby

Air Quality

  Air Quality AQ Index Pollutant
Not available.

Snow Depth

Station Depth Elevation

Earthquake Activity

City Distance Mag. Time & Date
Minimum magnitude displayed is 2.5.

Coastal Water Temperatures

Place Temperature

Nearby Weather Stations